Time;durP1;ratioP1;P1;durP2;ratioP2;P2;SDS_P1;SDS_P2;PMS_P1;PMS_P2;Temp;Humidity;BMP_temperature;BMP_pressure;BME280_temperature;BME280_humidity;BME280_pressure;Samples;Min_cycle;Max_cycle;Signal;HPM_P1;HPM_P2
2022/12/31 00:01:02;;;;;;;0.95;0.70;;;11.40;99.90;;;;;;5093312;27;21244;-68
2022/12/31 00:03:28;;;;;;;1.83;0.85;;;11.40;99.90;;;;;;5092398;28;20089;-68
2022/12/31 00:05:53;;;;;;;0.88;0.60;;;11.30;99.90;;;;;;5133874;27;20048;-68
2022/12/31 00:08:19;;;;;;;1.52;0.82;;;11.30;99.90;;;;;;5074321;28;20131;-68
2022/12/31 00:10:45;;;;;;;2.03;0.93;;;11.30;99.90;;;;;;5124663;27;20039;-68
2022/12/31 00:13:11;;;;;;;1.20;0.80;;;11.30;99.90;;;;;;5094605;27;20040;-68
2022/12/31 00:15:38;;;;;;;2.08;1.20;;;11.30;99.90;;;;;;5094878;27;20500;-68
2022/12/31 00:18:03;;;;;;;1.50;0.90;;;11.30;99.90;;;;;;5093182;28;20084;-68
2022/12/31 00:20:29;;;;;;;2.38;1.45;;;11.30;99.90;;;;;;5107694;27;20040;-68
2022/12/31 00:22:55;;;;;;;3.40;1.35;;;11.30;99.90;;;;;;5126787;27;20229;-68
2022/12/31 00:25:20;;;;;;;1.55;0.80;;;11.40;99.90;;;;;;5132824;27;20458;-68
2022/12/31 00:27:46;;;;;;;2.67;0.88;;;11.30;99.90;;;;;;5091864;28;20532;-68
2022/12/31 00:30:12;;;;;;;2.15;1.00;;;11.30;99.90;;;;;;5093361;28;20540;-68
2022/12/31 00:32:38;;;;;;;2.72;1.25;;;11.30;99.90;;;;;;5091028;28;20412;-68
2022/12/31 00:35:04;;;;;;;3.33;0.95;;;11.30;99.90;;;;;;5092204;28;20040;-68
2022/12/31 00:37:29;;;;;;;2.42;1.20;;;11.30;99.90;;;;;;5094344;27;20044;-68
2022/12/31 00:39:55;;;;;;;1.45;1.08;;;11.30;99.90;;;;;;5097979;28;20118;-68
2022/12/31 00:42:21;;;;;;;2.67;1.13;;;11.30;99.90;;;;;;5099022;28;20799;-68
2022/12/31 00:44:46;;;;;;;2.83;1.40;;;11.30;99.90;;;;;;5095935;27;20035;-68
2022/12/31 00:47:12;;;;;;;2.70;1.40;;;11.30;99.90;;;;;;5131080;27;20031;-68
2022/12/31 00:49:37;;;;;;;4.70;1.20;;;11.40;99.90;;;;;;5087969;28;20040;-68
2022/12/31 00:52:03;;;;;;;2.10;0.88;;;11.30;99.90;;;;;;5130348;27;20089;-68
2022/12/31 00:54:29;;;;;;;2.00;1.17;;;11.40;99.90;;;;;;5099321;28;20066;-68
2022/12/31 00:56:54;;;;;;;2.78;1.60;;;11.30;99.90;;;;;;5100956;28;20035;-69
2022/12/31 00:59:20;;;;;;;2.00;1.00;;;11.30;99.90;;;;;;5094326;28;20035;-68
2022/12/31 01:01:46;;;;;;;3.72;1.52;;;11.30;99.90;;;;;;5096114;27;20275;-68
2022/12/31 01:04:18;;;;;;;3.25;1.08;;;11.40;99.90;;;;;;5088751;28;20075;-68
2022/12/31 01:06:45;;;;;;;1.80;1.05;;;11.40;99.90;;;;;;5091529;28;20083;-68
2022/12/31 01:09:13;;;;;;;1.98;1.00;;;11.30;99.90;;;;;;5096263;28;20043;-68
2022/12/31 01:11:39;;;;;;;6.40;1.00;;;11.40;99.90;;;;;;5089705;28;20032;-68
2022/12/31 01:14:12;;;;;;;2.33;1.35;;;11.40;99.90;;;;;;5107091;27;20400;-68
2022/12/31 01:16:55;;;;;;;4.57;1.38;;;11.40;99.90;;;;;;5071098;27;20063;-68
2022/12/31 01:19:24;;;;;;;3.17;1.45;;;11.40;99.90;;;;;;5102261;28;20121;-68
2022/12/31 01:21:51;;;;;;;5.18;1.38;;;11.40;99.90;;;;;;5125184;27;20508;-68
2022/12/31 01:24:16;;;;;;;3.72;1.35;;;11.40;99.90;;;;;;5090664;27;20042;-68
2022/12/31 01:26:42;;;;;;;2.20;1.25;;;11.40;99.90;;;;;;5132011;27;20395;-68
2022/12/31 01:29:09;;;;;;;2.20;1.10;;;11.40;99.90;;;;;;5099259;28;20043;-68
2022/12/31 01:31:36;;;;;;;4.32;1.27;;;11.40;99.90;;;;;;5091800;28;20038;-68
2022/12/31 01:34:03;;;;;;;3.13;1.00;;;11.40;99.90;;;;;;5097198;27;20046;-68
2022/12/31 01:36:31;;;;;;;3.00;1.33;;;11.40;99.90;;;;;;5095462;28;20039;-68
2022/12/31 01:38:59;;;;;;;3.50;1.38;;;11.40;99.90;;;;;;5093371;28;20044;-68
2022/12/31 01:41:30;;;;;;;1.98;1.27;;;11.40;99.90;;;;;;5095167;28;20036;-68
2022/12/31 01:44:00;;;;;;;1.15;0.60;;;11.40;99.90;;;;;;5079403;27;20028;-68
2022/12/31 01:46:46;;;;;;;1.42;0.80;;;11.40;99.90;;;;;;5087901;27;20118;-68
2022/12/31 01:49:11;;;;;;;;;;;11.30;99.90;;;;;;5092733;28;20051;-69
2022/12/31 01:51:40;;;;;;;3.35;1.52;;;11.40;99.90;;;;;;5091287;28;20421;-68
2022/12/31 01:54:08;;;;;;;2.28;1.25;;;11.30;99.90;;;;;;5089751;28;20071;-68
2022/12/31 01:56:34;;;;;;;2.10;1.00;;;11.40;99.90;;;;;;5089727;28;20071;-68
2022/12/31 01:59:03;;;;;;;1.48;0.95;;;11.30;99.90;;;;;;5092377;28;20039;-68
2022/12/31 02:01:31;;;;;;;2.63;0.90;;;11.30;99.90;;;;;;5127878;27;20047;-68
2022/12/31 02:04:01;;;;;;;1.02;0.75;;;11.30;99.90;;;;;;5096288;28;20062;-68
2022/12/31 02:06:58;;;;;;;4.07;0.70;;;11.30;99.90;;;;;;5099108;28;20093;-68
2022/12/31 02:09:24;;;;;;;1.50;0.88;;;11.40;99.90;;;;;;5078301;28;20574;-68
2022/12/31 02:11:50;;;;;;;2.00;1.00;;;11.30;99.90;;;;;;5095385;28;20036;-69
2022/12/31 02:14:23;;;;;;;1.17;0.85;;;11.30;99.90;;;;;;5095051;28;20028;-68
2022/12/31 02:17:06;;;;;;;2.60;1.23;;;11.40;99.90;;;;;;5074962;27;20501;-68
2022/12/31 02:19:59;;;;;;;1.17;0.80;;;11.30;99.90;;;;;;5088881;28;20063;-68
2022/12/31 02:23:03;;;;;;;1.73;0.80;;;11.30;99.90;;;;;;5087790;28;20680;-68
2022/12/31 02:25:57;;;;;;;1.60;0.85;;;11.30;99.90;;;;;;5132059;27;20048;-68
2022/12/31 02:28:41;;;;;;;4.60;1.05;;;11.30;99.90;;;;;;5092575;28;20123;-68
2022/12/31 02:31:45;;;;;;;1.75;0.93;;;11.30;99.90;;;;;;5095738;28;20035;-68
2022/12/31 02:34:36;;;;;;;1.42;0.70;;;11.30;99.90;;;;;;5103032;27;20071;-68
2022/12/31 02:37:06;;;;;;;1.25;0.80;;;11.20;99.90;;;;;;5099170;28;20403;-68
2022/12/31 02:39:34;;;;;;;1.17;0.80;;;11.20;99.90;;;;;;5121112;27;20401;-68
2022/12/31 02:42:00;;;;;;;2.35;0.82;;;11.20;99.90;;;;;;5103137;27;20127;-68
2022/12/31 02:44:31;;;;;;;1.48;0.77;;;11.20;99.90;;;;;;5092421;28;20064;-67
2022/12/31 02:47:23;;;;;;;1.25;0.73;;;11.20;99.90;;;;;;5088558;28;22173;-68
2022/12/31 02:50:11;;;;;;;1.50;0.60;;;11.20;99.90;;;;;;5126691;27;20048;-68
2022/12/31 02:52:42;;;;;;;1.67;0.65;;;11.20;99.90;;;;;;5068608;28;20039;-68
2022/12/31 02:55:21;;;;;;;1.33;0.70;;;11.20;99.90;;;;;;5129422;27;20046;-68
2022/12/31 02:58:13;;;;;;;4.93;0.70;;;11.10;99.90;;;;;;5124857;27;20040;-68
2022/12/31 03:03:34;;;;;;;1.17;0.60;;;11.10;99.90;;;;;;5093510;28;20493;-68
2022/12/31 03:06:03;;;;;;;0.40;0.30;;;11.00;99.90;;;;;;5091201;28;20098;-68
2022/12/31 03:08:29;;;;;;;0.20;0.20;;;11.00;99.90;;;;;;5092408;27;20044;-68
2022/12/31 03:10:55;;;;;;;2.58;0.63;;;11.00;99.90;;;;;;5128954;27;20043;-68
2022/12/31 03:13:22;;;;;;;0.88;0.38;;;11.00;99.90;;;;;;5069379;28;20350;-68
2022/12/31 03:15:48;;;;;;;0.30;0.20;;;11.00;99.90;;;;;;5090574;28;20036;-68
2022/12/31 03:18:16;;;;;;;0.20;0.10;;;11.00;99.90;;;;;;5129616;27;20047;-68
2022/12/31 03:23:35;;;;;;;0.20;0.20;;;10.90;99.90;;;;;;5092328;28;20110;-68
2022/12/31 03:26:08;;;;;;;0.10;0.10;;;10.90;99.90;;;;;;5095733;28;20085;-68
2022/12/31 03:28:34;;;;;;;0.10;0.10;;;10.80;99.90;;;;;;5091436;28;20067;-68
2022/12/31 03:31:00;;;;;;;1.08;0.13;;;10.80;99.90;;;;;;5088644;28;20626;-68
2022/12/31 03:33:31;;;;;;;0.55;0.22;;;10.80;99.90;;;;;;5092706;28;20024;-68
2022/12/31 03:35:56;;;;;;;0.15;0.05;;;10.80;99.90;;;;;;5090865;28;20024;-68
2022/12/31 03:38:22;;;;;;;0.30;0.20;;;10.80;99.90;;;;;;5089713;28;20546;-68
2022/12/31 03:40:50;;;;;;;0.20;0.10;;;10.80;99.90;;;;;;5091999;28;20048;-68
2022/12/31 03:43:18;;;;;;;0.57;0.30;;;10.80;99.90;;;;;;5096907;28;20036;-68
2022/12/31 03:45:46;;;;;;;0.22;0.22;;;10.80;99.90;;;;;;5093583;28;20040;-68
2022/12/31 03:48:12;;;;;;;0.90;0.30;;;10.80;99.90;;;;;;5099283;28;20286;-68
2022/12/31 03:50:37;;;;;;;0.65;0.30;;;10.80;99.90;;;;;;5130946;27;20464;-68
2022/12/31 03:53:03;;;;;;;0.52;0.17;;;10.70;99.90;;;;;;5095959;28;20081;-68
2022/12/31 03:55:29;;;;;;;0.30;0.25;;;10.70;99.90;;;;;;5091755;28;20051;-68
2022/12/31 03:57:54;;;;;;;0.20;0.20;;;10.80;99.90;;;;;;5120723;27;20040;-68
2022/12/31 04:00:21;;;;;;;0.40;0.30;;;10.80;99.90;;;;;;5089800;28;20108;-68
2022/12/31 04:02:48;;;;;;;0.35;0.25;;;10.80;99.90;;;;;;5086058;28;20115;-68
2022/12/31 04:05:14;;;;;;;0.80;0.47;;;10.80;99.90;;;;;;5094438;28;20047;-68
2022/12/31 04:07:40;;;;;;;7.93;0.50;;;10.80;99.90;;;;;;5099148;28;20040;-68
2022/12/31 04:10:08;;;;;;;1.60;0.60;;;10.80;99.90;;;;;;5105228;27;20062;-68
2022/12/31 04:12:34;;;;;;;0.73;0.38;;;10.80;99.90;;;;;;5121908;27;20496;-68
2022/12/31 04:15:00;;;;;;;1.60;0.82;;;10.80;99.90;;;;;;5095144;28;20039;-68
2022/12/31 04:17:25;;;;;;;1.45;0.57;;;10.80;99.90;;;;;;5128481;27;20043;-68
2022/12/31 04:19:51;;;;;;;1.50;0.73;;;10.80;99.90;;;;;;5093991;28;20064;-68
2022/12/31 04:22:17;;;;;;;2.03;0.70;;;10.90;99.90;;;;;;5091270;28;20047;-68
2022/12/31 04:24:44;;;;;;;0.47;0.35;;;10.80;99.90;;;;;;5090799;28;20038;-68
2022/12/31 04:27:11;;;;;;;2.50;0.45;;;10.90;99.90;;;;;;5129483;27;20095;-68
2022/12/31 04:29:36;;;;;;;1.48;0.98;;;10.80;99.90;;;;;;5087683;28;20032;-68
2022/12/31 04:32:03;;;;;;;5.35;0.98;;;10.80;99.90;;;;;;5117759;27;20044;-68
2022/12/31 04:34:29;;;;;;;0.85;0.60;;;10.80;99.90;;;;;;5094220;28;20042;-68
2022/12/31 04:36:54;;;;;;;0.68;0.40;;;10.80;99.90;;;;;;5094268;28;20032;-68
2022/12/31 04:39:20;;;;;;;0.75;0.40;;;10.90;99.90;;;;;;5093097;28;20044;-67
2022/12/31 04:41:46;;;;;;;1.77;0.80;;;10.90;99.90;;;;;;5089325;28;20060;-68
2022/12/31 04:44:12;;;;;;;1.33;0.55;;;10.90;99.90;;;;;;5093415;28;20244;-68
2022/12/31 04:46:37;;;;;;;1.17;0.77;;;10.90;99.90;;;;;;5079560;28;20067;-68
2022/12/31 04:49:03;;;;;;;1.85;0.68;;;10.90;99.90;;;;;;5092766;28;20039;-68
2022/12/31 04:51:29;;;;;;;2.00;0.50;;;10.90;99.90;;;;;;5127385;27;20032;-68
2022/12/31 04:53:56;;;;;;;3.63;0.50;;;10.90;99.90;;;;;;5097250;28;20554;-68
2022/12/31 04:56:21;;;;;;;0.80;0.57;;;10.90;99.90;;;;;;5093346;28;20046;-68
2022/12/31 04:58:47;;;;;;;1.55;0.57;;;10.90;99.90;;;;;;5093617;28;20043;-68
2022/12/31 05:01:13;;;;;;;0.52;0.30;;;10.90;99.90;;;;;;5099621;28;20492;-68
2022/12/31 05:03:40;;;;;;;1.55;0.60;;;10.90;99.90;;;;;;5094868;28;20040;-68
2022/12/31 05:06:11;;;;;;;2.35;0.70;;;10.90;99.90;;;;;;5091431;28;20063;-68
2022/12/31 05:08:37;;;;;;;0.70;0.45;;;11.00;99.90;;;;;;5095709;28;20048;-68
2022/12/31 05:11:02;;;;;;;1.88;0.75;;;10.80;99.90;;;;;;5127793;27;20036;-68
2022/12/31 05:13:28;;;;;;;0.50;0.30;;;10.90;99.90;;;;;;5095737;28;20032;-68
2022/12/31 05:15:54;;;;;;;0.77;0.43;;;10.90;99.90;;;;;;5088479;28;20091;-68
2022/12/31 05:18:20;;;;;;;2.22;0.52;;;10.90;99.90;;;;;;5097461;28;20044;-68
2022/12/31 05:20:46;;;;;;;3.63;0.43;;;10.80;99.90;;;;;;5076458;28;20031;-68
2022/12/31 05:23:13;;;;;;;1.20;0.43;;;10.80;99.90;;;;;;5095949;28;20500;-68
2022/12/31 05:25:40;;;;;;;0.20;0.10;;;10.90;99.90;;;;;;5095986;28;20036;-68
2022/12/31 05:28:06;;;;;;;0.77;0.43;;;10.80;99.90;;;;;;5097982;28;20035;-68
2022/12/31 05:30:31;;;;;;;1.10;0.60;;;10.80;99.90;;;;;;5094198;28;20034;-68
2022/12/31 05:32:57;;;;;;;0.60;0.30;;;10.80;99.90;;;;;;5078769;28;20636;-68
2022/12/31 05:35:23;;;;;;;0.88;0.50;;;10.80;99.90;;;;;;5093180;28;20042;-68
2022/12/31 05:37:48;;;;;;;0.93;0.60;;;10.90;99.90;;;;;;5093504;28;21579;-68
2022/12/31 05:40:14;;;;;;;0.95;0.55;;;10.90;99.90;;;;;;5107982;27;20122;-68
2022/12/31 05:42:40;;;;;;;0.65;0.47;;;10.80;99.90;;;;;;5078854;28;20035;-68
2022/12/31 05:45:06;;;;;;;0.77;0.40;;;10.80;99.90;;;;;;5090540;28;20028;-68
2022/12/31 05:47:31;;;;;;;1.35;0.65;;;10.80;99.90;;;;;;5109513;27;20071;-69
2022/12/31 05:49:57;;;;;;;0.70;0.40;;;10.90;99.90;;;;;;5094426;28;20770;-69
2022/12/31 05:52:23;;;;;;;0.77;0.40;;;10.90;99.90;;;;;;5107480;27;20424;-68
2022/12/31 05:54:48;;;;;;;1.40;0.55;;;10.80;99.90;;;;;;5075744;28;20120;-68
2022/12/31 05:57:14;;;;;;;1.88;1.00;;;10.80;99.90;;;;;;5125753;27;20463;-68
2022/12/31 05:59:40;;;;;;;1.17;0.68;;;10.80;99.90;;;;;;5126056;27;20080;-68
2022/12/31 06:02:06;;;;;;;2.30;0.90;;;10.80;99.90;;;;;;5089190;28;20753;-68
2022/12/31 06:04:31;;;;;;;0.60;0.45;;;10.80;99.90;;;;;;5125281;27;20040;-68
2022/12/31 06:06:57;;;;;;;1.13;0.50;;;10.80;99.90;;;;;;5095955;28;20066;-68
2022/12/31 06:09:23;;;;;;;1.08;0.55;;;10.80;99.90;;;;;;5092556;28;20447;-68
2022/12/31 06:11:49;;;;;;;1.65;0.80;;;10.90;99.90;;;;;;5090614;28;20466;-68
2022/12/31 06:14:14;;;;;;;1.15;0.73;;;10.90;99.90;;;;;;5090237;28;20066;-68
2022/12/31 06:16:40;;;;;;;1.30;0.75;;;10.90;99.90;;;;;;5088831;28;20031;-68
2022/12/31 06:19:06;;;;;;;1.00;0.50;;;10.90;99.90;;;;;;5089948;27;20035;-68
2022/12/31 06:21:32;;;;;;;1.70;0.77;;;10.90;99.90;;;;;;5092068;28;20036;-68
2022/12/31 06:23:58;;;;;;;1.60;0.77;;;10.90;99.90;;;;;;5128215;27;20031;-69
2022/12/31 06:26:24;;;;;;;1.90;0.75;;;10.90;99.90;;;;;;5091443;28;20508;-68
2022/12/31 06:28:50;;;;;;;1.85;0.70;;;10.90;99.90;;;;;;5120298;27;20036;-68
2022/12/31 06:31:15;;;;;;;0.70;0.40;;;10.90;99.90;;;;;;5090064;28;20374;-68
2022/12/31 06:33:42;;;;;;;1.15;0.68;;;10.80;99.90;;;;;;5078529;28;20036;-68
2022/12/31 06:36:11;;;;;;;1.00;0.47;;;10.90;99.90;;;;;;5101668;28;20427;-68
2022/12/31 06:38:42;;;;;;;0.57;0.32;;;10.80;99.90;;;;;;5085654;28;20032;-68
2022/12/31 06:41:10;;;;;;;0.65;0.40;;;10.90;99.90;;;;;;5091797;28;20920;-69
2022/12/31 06:43:37;;;;;;;1.00;0.68;;;10.80;99.90;;;;;;5091898;28;20047;-68
2022/12/31 06:46:04;;;;;;;1.08;0.57;;;10.80;99.90;;;;;;5092472;28;20054;-69
2022/12/31 06:48:30;;;;;;;1.98;0.93;;;10.90;99.90;;;;;;5088392;28;20036;-68
2022/12/31 06:51:01;;;;;;;1.10;0.40;;;10.80;99.90;;;;;;5090167;28;20485;-68
2022/12/31 06:53:27;;;;;;;0.75;0.50;;;10.80;99.90;;;;;;5085986;28;20061;-68
2022/12/31 06:55:52;;;;;;;0.50;0.35;;;10.80;99.90;;;;;;5127305;27;20028;-68
2022/12/31 06:58:18;;;;;;;0.73;0.45;;;10.80;99.90;;;;;;5074949;28;20490;-68
2022/12/31 07:01:00;;;;;;;0.70;0.30;;;10.80;99.90;;;;;;5095206;28;20297;-68
2022/12/31 07:03:43;;;;;;;1.33;0.50;;;10.80;99.90;;;;;;5091283;28;20497;-68
2022/12/31 07:06:19;;;;;;;1.20;0.65;;;10.80;99.90;;;;;;5116302;27;20044;-68
2022/12/31 07:09:18;;;;;;;0.20;0.20;;;10.80;99.90;;;;;;5093690;28;20481;-68
2022/12/31 07:11:56;;;;;;;0.25;0.20;;;10.80;99.90;;;;;;5087660;28;20032;-68
2022/12/31 07:14:39;;;;;;;0.93;0.50;;;10.80;99.90;;;;;;5094245;28;20387;-68
2022/12/31 07:17:25;;;;;;;0.57;0.20;;;10.70;99.90;;;;;;5087730;28;20118;-68
2022/12/31 07:20:08;;;;;;;0.60;0.40;;;10.70;99.90;;;;;;5092905;28;20036;-68
2022/12/31 07:22:33;;;;;;;1.30;0.50;;;10.80;99.90;;;;;;5093993;28;20476;-68
2022/12/31 07:24:59;;;;;;;0.30;0.30;;;10.70;99.90;;;;;;5087888;28;20066;-68
2022/12/31 07:27:48;;;;;;;1.17;0.45;;;10.80;99.90;;;;;;5090390;28;20550;-68
2022/12/31 07:30:19;;;;;;;0.60;0.40;;;10.70;99.90;;;;;;5092523;28;20027;-68
2022/12/31 07:33:14;;;;;;;1.38;0.47;;;10.70;99.90;;;;;;5096148;28;20378;-68
2022/12/31 07:35:39;;;;;;;0.80;0.40;;;10.80;99.90;;;;;;5105079;27;20036;-68
2022/12/31 07:38:26;;;;;;;1.08;0.57;;;10.70;99.90;;;;;;5078558;28;20036;-68
2022/12/31 07:41:30;;;;;;;1.20;0.63;;;10.80;99.90;;;;;;5088802;28;20485;-68
2022/12/31 07:44:31;;;;;;;1.10;0.63;;;10.70;99.90;;;;;;5090507;28;20040;-68
2022/12/31 07:46:59;;;;;;;0.68;0.35;;;10.80;99.90;;;;;;5083417;28;20036;-68
2022/12/31 07:49:27;;;;;;;2.38;0.98;;;10.80;99.90;;;;;;5094923;28;20316;-68
2022/12/31 07:51:53;;;;;;;0.57;0.40;;;10.80;99.90;;;;;;5125564;27;20032;-68
2022/12/31 07:54:19;;;;;;;1.77;0.55;;;10.80;99.90;;;;;;5096449;28;20052;-68
2022/12/31 07:56:45;;;;;;;2.05;0.73;;;10.80;99.90;;;;;;5092801;28;20023;-68
2022/12/31 07:59:19;;;;;;;1.65;0.68;;;10.80;99.90;;;;;;5098722;28;20051;-68
2022/12/31 08:01:58;;;;;;;0.95;0.52;;;10.80;99.90;;;;;;5090900;28;20043;-68
2022/12/31 08:04:41;;;;;;;1.35;0.60;;;10.80;99.90;;;;;;5090536;28;20532;-68
2022/12/31 08:07:46;;;;;;;0.38;0.20;;;10.90;99.90;;;;;;5123756;27;20043;-68
2022/12/31 08:10:40;;;;;;;0.85;0.30;;;10.90;99.90;;;;;;5044672;28;20493;-68
2022/12/31 08:13:10;;;;;;;0.70;0.30;;;10.90;99.90;;;;;;5067093;28;20043;-68
2022/12/31 08:15:39;;;;;;;0.60;0.38;;;10.90;99.90;;;;;;5135854;27;20120;-68
2022/12/31 08:18:06;;;;;;;0.50;0.28;;;10.90;99.90;;;;;;5094026;27;20457;-69
2022/12/31 08:20:37;;;;;;;0.57;0.28;;;10.90;99.90;;;;;;5076828;28;20497;-68
2022/12/31 08:23:35;;;;;;;0.20;0.10;;;11.00;99.90;;;;;;5093013;28;21504;-68
2022/12/31 08:26:18;;;;;;;0.98;0.60;;;10.90;99.90;;;;;;5098246;28;20107;-68
2022/12/31 08:29:15;;;;;;;1.08;0.40;;;11.00;99.90;;;;;;5099418;28;20438;-68
2022/12/31 08:32:07;;;;;;;1.23;0.60;;;11.00;99.90;;;;;;5079276;27;20055;-68
2022/12/31 08:34:37;;;;;;;1.33;0.60;;;11.00;99.90;;;;;;5099124;27;20046;-68
2022/12/31 08:37:12;;;;;;;2.60;0.43;;;11.00;99.90;;;;;;5091759;27;20385;-68
2022/12/31 08:39:52;;;;;;;1.02;0.60;;;11.00;99.90;;;;;;5092849;27;20166;-68
2022/12/31 08:42:29;;;;;;;1.00;0.45;;;11.00;99.90;;;;;;5094504;28;20401;-68
2022/12/31 08:45:10;;;;;;;1.27;0.45;;;11.10;99.90;;;;;;5095947;27;20036;-68
2022/12/31 08:47:51;;;;;;;1.20;0.57;;;11.10;99.90;;;;;;5089158;27;20468;-68
2022/12/31 08:50:18;;;;;;;1.67;0.63;;;11.10;99.90;;;;;;5095641;27;20078;-67
2022/12/31 08:52:44;;;;;;;1.20;0.57;;;11.20;99.90;;;;;;5091511;27;20060;-68
2022/12/31 08:55:18;;;;;;;1.70;0.75;;;11.30;99.90;;;;;;5088313;27;20035;-68
2022/12/31 08:58:11;;;;;;;1.23;0.80;;;11.20;99.90;;;;;;5087550;27;20040;-68
2022/12/31 09:00:37;;;;;;;0.73;0.30;;;11.30;99.90;;;;;;5090028;27;20048;-68
2022/12/31 09:03:22;;;;;;;0.80;0.52;;;11.30;99.90;;;;;;5097349;27;20428;-68
2022/12/31 09:06:19;;;;;;;1.05;0.50;;;11.40;99.90;;;;;;5087400;27;20076;-68
2022/12/31 09:09:00;;;;;;;1.48;0.90;;;11.50;99.90;;;;;;5085953;27;20148;-67
2022/12/31 09:12:03;;;;;;;1.00;0.55;;;11.50;99.90;;;;;;5118752;27;20070;-68
2022/12/31 09:14:39;;;;;;;1.08;0.65;;;11.60;99.90;;;;;;5123555;27;20035;-68
2022/12/31 09:17:11;;;;;;;0.95;0.43;;;11.70;99.90;;;;;;5109564;27;20035;-67
2022/12/31 09:19:37;;;;;;;0.55;0.32;;;11.80;99.90;;;;;;5109505;28;20031;-68
2022/12/31 09:22:02;;;;;;;0.80;0.40;;;11.80;99.90;;;;;;5144071;27;20523;-68
2022/12/31 09:24:28;;;;;;;0.45;0.28;;;11.80;99.90;;;;;;5129638;27;20444;-68
2022/12/31 09:27:29;;;;;;;0.70;0.40;;;11.80;99.90;;;;;;5090648;28;20036;-68
2022/12/31 09:30:05;;;;;;;1.27;0.50;;;11.90;99.90;;;;;;5090603;28;20123;-68
2022/12/31 09:32:57;;;;;;;0.60;0.30;;;12.00;99.90;;;;;;5104073;28;20100;-68
2022/12/31 09:35:37;;;;;;;0.52;0.30;;;11.90;99.90;;;;;;5144818;27;20035;-67
2022/12/31 09:38:23;;;;;;;0.10;0.10;;;12.00;99.90;;;;;;5110720;28;20061;-71
2022/12/31 09:41:26;;;;;;;0.90;0.50;;;12.00;99.90;;;;;;5108229;27;20047;-68
2022/12/31 09:44:10;;;;;;;1.83;0.40;;;12.00;99.90;;;;;;5133288;27;20089;-68
2022/12/31 09:47:23;;;;;;;0.40;0.20;;;12.00;99.90;;;;;;5144460;27;20039;-68
2022/12/31 09:50:19;;;;;;;0.20;0.20;;;12.10;99.90;;;;;;5110092;28;20088;-68
2022/12/31 09:53:17;;;;;;;0.32;0.22;;;12.10;99.90;;;;;;5110277;28;20061;-68
2022/12/31 09:56:01;;;;;;;0.20;0.20;;;12.10;99.90;;;;;;5108872;28;20040;-68
2022/12/31 09:59:05;;;;;;;0.43;0.30;;;12.10;99.90;;;;;;5089108;28;20035;-69
2022/12/31 10:01:53;;;;;;;0.38;0.20;;;12.10;99.90;;;;;;5068032;28;20101;-67
2022/12/31 10:04:32;;;;;;;0.47;0.22;;;12.20;99.90;;;;;;5079616;28;20086;-68
2022/12/31 10:07:22;;;;;;;0.10;0.10;;;12.20;99.90;;;;;;5084876;27;20043;-68
2022/12/31 10:10:09;;;;;;;0.10;0.10;;;12.20;99.90;;;;;;5089714;28;20043;-68
2022/12/31 10:13:07;;;;;;;1.75;0.43;;;12.30;99.90;;;;;;5093759;27;20039;-68
2022/12/31 10:16:14;;;;;;;0.63;0.35;;;12.30;99.90;;;;;;5094398;27;20046;-68
2022/12/31 10:19:11;;;;;;;1.45;0.20;;;12.30;99.90;;;;;;5052955;28;20040;-67
2022/12/31 10:22:06;;;;;;;0.35;0.20;;;12.40;99.90;;;;;;5093243;27;20047;-67
2022/12/31 10:24:46;;;;;;;0.10;0.10;;;12.40;99.90;;;;;;5114771;27;20050;-68
2022/12/31 10:27:18;;;;;;;0.47;0.20;;;12.40;99.90;;;;;;5098227;27;20039;-67
2022/12/31 10:30:00;;;;;;;0.65;0.20;;;12.40;99.90;;;;;;5090439;27;20036;-68
2022/12/31 10:32:41;;;;;;;0.43;0.10;;;12.50;99.90;;;;;;5096526;28;20051;-68
2022/12/31 10:35:27;;;;;;;0.57;0.30;;;12.50;99.90;;;;;;5082645;28;20036;-68
2022/12/31 10:37:55;;;;;;;0.03;0.03;;;12.60;99.90;;;;;;5072411;28;20054;-68
2022/12/31 10:40:35;;;;;;;0.50;0.22;;;12.50;99.90;;;;;;5100718;28;21077;-68
2022/12/31 10:43:52;;;;;;;0.20;0.10;;;12.60;99.90;;;;;;5079090;28;20036;-68
2022/12/31 10:46:33;;;;;;;0.32;0.20;;;12.60;99.90;;;;;;5129819;27;20527;-68
2022/12/31 10:49:16;;;;;;;1.10;0.40;;;12.70;99.90;;;;;;5093056;28;20035;-68
2022/12/31 10:51:58;;;;;;;0.65;0.40;;;12.70;99.90;;;;;;5114480;27;20044;-68
2022/12/31 10:54:48;;;;;;;1.08;0.50;;;12.60;99.90;;;;;;5080538;28;20050;-68
2022/12/31 10:57:36;;;;;;;1.58;0.52;;;12.70;99.90;;;;;;5092234;27;20035;-68
2022/12/31 11:00:14;;;;;;;0.13;0.13;;;12.70;99.90;;;;;;5124460;27;20035;-69
2022/12/31 11:02:39;;;;;;;1.08;0.35;;;12.70;99.90;;;;;;5099518;28;20083;-68
2022/12/31 11:05:42;;;;;;;0.75;0.43;;;12.70;99.90;;;;;;5093947;28;20048;-68
2022/12/31 11:08:28;;;;;;;1.67;0.40;;;12.70;99.90;;;;;;5099010;28;20054;-68
2022/12/31 11:11:07;;;;;;;0.88;0.20;;;12.70;99.90;;;;;;5084845;28;20040;-68
2022/12/31 11:13:57;;;;;;;0.70;0.40;;;12.70;99.90;;;;;;5095200;28;20489;-68
2022/12/31 11:16:47;;;;;;;1.52;0.47;;;12.70;99.90;;;;;;5096674;28;20044;-68
2022/12/31 11:19:40;;;;;;;0.60;0.30;;;12.70;99.90;;;;;;5097708;27;20569;-68
2022/12/31 11:22:26;;;;;;;2.67;0.50;;;12.70;99.90;;;;;;5089868;28;20564;-69
2022/12/31 11:25:11;;;;;;;0.50;0.30;;;12.60;99.90;;;;;;5093393;28;20507;-68
2022/12/31 11:28:29;;;;;;;0.47;0.28;;;12.70;99.90;;;;;;5086408;27;20089;-68
2022/12/31 11:31:11;;;;;;;1.65;0.25;;;12.60;99.90;;;;;;5069111;28;20305;-68
2022/12/31 11:34:09;;;;;;;0.60;0.20;;;12.70;99.90;;;;;;5105689;27;20065;-67
2022/12/31 11:36:58;;;;;;;1.10;0.35;;;12.70;99.90;;;;;;5072520;28;20188;-68
2022/12/31 11:39:38;;;;;;;0.22;0.20;;;12.70;99.90;;;;;;5089365;28;20119;-68
2022/12/31 11:42:30;;;;;;;0.08;0.08;;;12.60;99.90;;;;;;5089469;28;20171;-67
2022/12/31 11:45:11;;;;;;;0.30;0.20;;;12.70;99.90;;;;;;5081279;28;20156;-67
2022/12/31 11:47:55;;;;;;;0.38;0.20;;;12.60;99.90;;;;;;5103668;27;20059;-67
2022/12/31 11:50:42;;;;;;;0.50;0.35;;;12.70;99.90;;;;;;5115678;27;20036;-67
2022/12/31 11:53:14;;;;;;;0.73;0.40;;;12.60;99.90;;;;;;5091223;28;20040;-67
2022/12/31 11:56:10;;;;;;;2.20;0.43;;;12.70;99.90;;;;;;5083937;28;20512;-68
2022/12/31 11:58:36;;;;;;;0.45;0.38;;;12.70;99.90;;;;;;5067283;28;20603;-72
2022/12/31 12:01:25;;;;;;;1.92;0.90;;;12.70;99.90;;;;;;5084696;28;20048;-71
2022/12/31 12:03:50;;;;;;;0.82;0.57;;;12.70;99.90;;;;;;5087989;28;20131;-67
2022/12/31 12:06:22;;;;;;;0.98;0.77;;;12.70;99.90;;;;;;5083460;28;20576;-68
2022/12/31 12:08:48;;;;;;;1.65;0.68;;;12.80;99.90;;;;;;5085843;28;20078;-67
2022/12/31 12:11:22;;;;;;;0.88;0.40;;;12.80;99.90;;;;;;5087762;28;20114;-67
2022/12/31 12:13:48;;;;;;;2.90;0.75;;;12.80;99.90;;;;;;5094844;28;20092;-67
2022/12/31 12:16:14;;;;;;;5.50;0.70;;;12.90;99.90;;;;;;5081150;28;20028;-68
2022/12/31 12:18:48;;;;;;;3.25;0.93;;;12.80;99.90;;;;;;5061065;28;20028;-67
2022/12/31 12:21:20;;;;;;;0.63;0.60;;;12.90;99.90;;;;;;5075017;28;20040;-67
2022/12/31 12:24:17;;;;;;;6.90;1.00;;;12.90;99.90;;;;;;5105345;27;21309;-67
2022/12/31 12:26:44;;;;;;;1.65;1.25;;;13.00;99.90;;;;;;5071130;28;20036;-68
2022/12/31 12:29:22;;;;;;;3.38;2.28;;;13.00;99.90;;;;;;5088057;28;21294;-67
2022/12/31 12:31:58;;;;;;;4.43;2.63;;;13.10;99.90;;;;;;5110314;27;20036;-67
2022/12/31 12:34:36;;;;;;;13.15;5.22;;;13.10;99.90;;;;;;5068178;28;20044;-68
2022/12/31 12:37:02;;;;;;;2.33;1.10;;;13.20;99.90;;;;;;5087181;28;21641;-68
2022/12/31 12:39:30;;;;;;;5.63;3.45;;;13.20;99.90;;;;;;5086372;28;20397;-68
2022/12/31 12:42:12;;;;;;;2.75;1.50;;;13.20;99.90;;;;;;5084975;28;20047;-68
2022/12/31 12:44:40;;;;;;;13.15;7.03;;;13.10;99.90;;;;;;5117326;27;20051;-67
2022/12/31 12:47:12;;;;;;;17.25;7.97;;;13.10;99.90;;;;;;5099037;28;20297;-67
2022/12/31 12:49:41;;;;;;;28.42;11.95;;;13.20;99.90;;;;;;5104458;27;20059;-68
2022/12/31 12:52:47;;;;;;;2.03;1.70;;;13.20;99.90;;;;;;5082964;28;20040;-68
2022/12/31 12:55:31;;;;;;;3.38;1.77;;;13.10;99.90;;;;;;5097496;27;20047;-67
2022/12/31 12:58:15;;;;;;;1.17;0.85;;;13.10;99.90;;;;;;5091079;27;20046;-68
2022/12/31 13:00:44;;;;;;;1.10;0.70;;;13.10;99.90;;;;;;5075844;28;20085;-67
2022/12/31 13:03:37;;;;;;;0.65;0.40;;;13.10;99.90;;;;;;5096787;27;20052;-67
2022/12/31 13:06:35;;;;;;;1.00;0.68;;;13.10;99.90;;;;;;5088557;27;20359;-67
2022/12/31 13:09:07;;;;;;;1.17;0.50;;;13.10;99.90;;;;;;5094686;27;20378;-68
2022/12/31 13:11:35;;;;;;;2.58;0.55;;;13.10;99.90;;;;;;5087651;27;20040;-67
2022/12/31 13:14:10;;;;;;;0.55;0.45;;;13.10;99.90;;;;;;5085642;27;20123;-67
2022/12/31 13:16:45;;;;;;;2.90;1.08;;;13.10;99.90;;;;;;5105305;27;20063;-68
2022/12/31 13:19:35;;;;;;;;;;;13.10;99.90;;;;;;5090295;27;20040;-67
2022/12/31 13:22:07;;;;;;;7.28;6.68;;;13.00;99.90;;;;;;5086574;28;19999;-67
2022/12/31 13:24:50;;;;;;;4.43;4.03;;;13.00;99.90;;;;;;5092436;27;20046;-67
2022/12/31 13:27:36;;;;;;;2.63;2.33;;;13.00;99.90;;;;;;5092817;27;20047;-67
2022/12/31 13:30:03;;;;;;;;;;;13.00;99.90;;;;;;5089839;27;20047;-67
2022/12/31 13:32:39;;;;;;;3.22;2.33;;;13.00;99.90;;;;;;5093633;27;20517;-67